createdAt,value
2022-09-21T00:00:27.394Z,8.83
2022-09-21T00:15:23.491Z,8.62
2022-09-21T00:30:23.397Z,8.35
2022-09-21T00:45:23.806Z,8.33
2022-09-21T01:00:28.775Z,8.15
2022-09-21T01:15:23.958Z,7.95
2022-09-21T01:30:23.859Z,7.83
2022-09-21T01:45:23.599Z,7.55
2022-09-21T02:00:24.298Z,7.45
2022-09-21T02:15:23.635Z,7.20
2022-09-21T02:30:23.643Z,7.30
2022-09-21T02:45:23.619Z,6.88
2022-09-21T03:00:30.814Z,6.82
2022-09-21T03:15:23.880Z,6.77
2022-09-21T03:30:24.946Z,6.62
2022-09-21T03:45:23.633Z,6.90
2022-09-21T04:00:27.829Z,6.65
2022-09-21T04:15:23.035Z,6.53
2022-09-21T04:30:24.113Z,6.40
2022-09-21T04:45:23.829Z,6.27
2022-09-21T05:00:22.924Z,6.40
2022-09-21T05:15:23.827Z,6.12
2022-09-21T05:30:23.949Z,6.05
2022-09-21T05:45:24.525Z,5.97
2022-09-21T06:00:28.507Z,6.27
2022-09-21T06:15:23.856Z,6.52
2022-09-21T06:30:25.628Z,6.43
2022-09-21T06:45:24.674Z,6.75
2022-09-21T07:00:28.428Z,6.82
2022-09-21T07:15:23.603Z,7.33
2022-09-21T07:30:24.211Z,8.73
2022-09-21T07:45:23.926Z,10.82
2022-09-21T08:00:32.732Z,9.70
2022-09-21T08:15:46.984Z,10.15
2022-09-21T08:30:24.147Z,10.13
2022-09-21T08:45:25.109Z,10.15
2022-09-21T09:00:26.175Z,10.43
2022-09-21T09:15:23.987Z,10.80
2022-09-21T09:30:24.208Z,11.17
2022-09-21T09:45:25.557Z,11.67
2022-09-21T10:00:28.164Z,12.25
2022-09-21T10:15:24.019Z,12.55
2022-09-21T10:30:24.080Z,13.02
2022-09-21T10:45:23.098Z,13.38
2022-09-21T11:00:32.193Z,13.73
2022-09-21T11:15:24.076Z,14.05
2022-09-21T11:30:23.824Z,14.20
2022-09-21T11:45:24.027Z,14.65
2022-09-21T12:00:24.104Z,14.60
2022-09-21T12:15:23.999Z,15.03
2022-09-21T12:30:24.123Z,15.35
2022-09-21T12:45:23.966Z,15.32
2022-09-21T13:00:24.234Z,15.48
2022-09-21T13:15:23.367Z,15.73
2022-09-21T13:30:25.298Z,16.05
2022-09-21T13:45:23.842Z,16.17
2022-09-21T14:00:34.290Z,16.67
2022-09-21T14:15:27.455Z,16.33
2022-09-21T14:30:24.319Z,16.67
2022-09-21T14:45:23.990Z,16.77
2022-09-21T15:00:24.875Z,16.83
2022-09-21T15:15:24.038Z,17.13
2022-09-21T15:30:24.032Z,16.85
2022-09-21T15:45:24.019Z,17.10
2022-09-21T16:00:24.489Z,16.73
2022-09-21T16:15:23.952Z,16.30
2022-09-21T16:30:24.069Z,15.95
2022-09-21T16:45:24.237Z,15.62
2022-09-21T17:00:35.818Z,15.05
2022-09-21T17:15:24.161Z,14.25
2022-09-21T17:30:24.509Z,13.87
2022-09-21T17:45:24.135Z,13.17
2022-09-21T18:00:29.792Z,12.93
2022-09-21T18:15:24.557Z,12.32
2022-09-21T18:30:24.545Z,12.20
2022-09-21T18:45:24.716Z,11.58
2022-09-21T19:00:29.912Z,11.32
2022-09-21T19:15:42.295Z,10.93
2022-09-21T19:30:24.450Z,10.52
2022-09-21T19:45:23.629Z,10.25
2022-09-21T20:00:28.702Z,10.10
2022-09-21T20:16:45.504Z,11.50
2022-09-21T20:31:33.407Z,9.38
2022-09-21T20:46:33.809Z,9.27
2022-09-21T21:01:33.553Z,9.13
2022-09-21T21:15:23.986Z,8.75
2022-09-21T21:30:25.282Z,9.00
2022-09-21T21:45:23.897Z,8.55
2022-09-21T22:00:52.477Z,10.00
2022-09-21T22:15:23.945Z,8.15
2022-09-21T22:30:24.231Z,7.93
2022-09-21T22:45:24.245Z,7.65
2022-09-21T23:00:23.501Z,7.40
2022-09-21T23:15:24.169Z,7.10
2022-09-21T23:30:23.460Z,7.05
2022-09-21T23:45:23.423Z,6.82
